地図

経路データ

SID SEASON NUMBER BASIN SUBBASIN NAME ISO_TIME NATURE LAT LON WMO_WIND WMO_PRES WMO_AGENCY TRACK_TYPE DIST2LAND LANDFALL IFLAG USA_AGENCY USA_ATCF_ID USA_LAT USA_LON USA_RECORD USA_STATUS USA_WIND USA_PRES USA_SSHS USA_R34_NE USA_R34_SE USA_R34_SW USA_R34_NW USA_R50_NE USA_R50_SE USA_R50_SW USA_R50_NW USA_R64_NE USA_R64_SE USA_R64_SW USA_R64_NW USA_POCI USA_ROCI USA_RMW USA_EYE TOKYO_LAT TOKYO_LON TOKYO_GRADE TOKYO_WIND TOKYO_PRES TOKYO_R50_DIR TOKYO_R50_LONG TOKYO_R50_SHORT TOKYO_R30_DIR TOKYO_R30_LONG TOKYO_R30_SHORT TOKYO_LAND CMA_LAT CMA_LON CMA_CAT CMA_WIND CMA_PRES HKO_LAT HKO_LON HKO_CAT HKO_WIND HKO_PRES NEWDELHI_LAT NEWDELHI_LON NEWDELHI_GRADE NEWDELHI_WIND NEWDELHI_PRES NEWDELHI_CI NEWDELHI_DP NEWDELHI_POCI REUNION_LAT REUNION_LON REUNION_TYPE REUNION_WIND REUNION_PRES REUNION_TNUM REUNION_CI REUNION_RMW REUNION_R34_NE REUNION_R34_SE REUNION_R34_SW REUNION_R34_NW REUNION_R50_NE REUNION_R50_SE REUNION_R50_SW REUNION_R50_NW REUNION_R64_NE REUNION_R64_SE REUNION_R64_SW REUNION_R64_NW BOM_LAT BOM_LON BOM_TYPE BOM_WIND BOM_PRES BOM_TNUM BOM_CI BOM_RMW BOM_R34_NE BOM_R34_SE BOM_R34_SW BOM_R34_NW BOM_R50_NE BOM_R50_SE BOM_R50_SW BOM_R50_NW BOM_R64_NE BOM_R64_SE BOM_R64_SW BOM_R64_NW BOM_ROCI BOM_POCI BOM_EYE BOM_POS_METHOD BOM_PRES_METHOD NADI_LAT NADI_LON NADI_CAT NADI_WIND NADI_PRES WELLINGTON_LAT WELLINGTON_LON WELLINGTON_WIND WELLINGTON_PRES DS824_LAT DS824_LON DS824_STAGE DS824_WIND DS824_PRES TD9636_LAT TD9636_LON TD9636_STAGE TD9636_WIND TD9636_PRES TD9635_LAT TD9635_LON TD9635_WIND TD9635_PRES TD9635_ROCI NEUMANN_LAT NEUMANN_LON NEUMANN_CLASS NEUMANN_WIND NEUMANN_PRES MLC_LAT MLC_LON MLC_CLASS MLC_WIND MLC_PRES USA_GUST BOM_GUST BOM_GUST_PER REUNION_GUST REUNION_GUST_PER USA_SEAHGT USA_SEARAD_NE USA_SEARAD_SE USA_SEARAD_SW USA_SEARAD_NW STORM_SPEED STORM_DIR
1956300N06091 1956 103 NI BB NOT_NAMED 1956-10-25 15:00:00 NR 6.00000 91.4000 main 423 423 __________O___ -1 6.00000 91.4000 1 0 0
1956300N06091 1956 103 NI BB NOT_NAMED 1956-10-25 18:00:00 TS 6.01482 91.3945 main 423 423 O________OP___ jtwc_io IO121956 6.00000 91.4000 -1 6.00000 91.4000 TC 6.02963 91.3890 1 1 328
1956300N06091 1956 103 NI BB NOT_NAMED 1956-10-25 21:00:00 TS 6.04746 91.3710 main 423 423 P________PP___ IO121956 6.02499 91.3850 -1 6.02499 91.3850 TC 6.07742 91.3524 1 2 316
1956300N06091 1956 103 NI BB NOT_NAMED 1956-10-26 00:00:00 TS 6.12460 91.2859 main 435 435 O________OP___ jtwc_io IO121956 6.10000 91.3000 -1 6.10000 91.3000 TC 25 6.16150 91.2647 1 4 310
1956300N06091 1956 103 NI BB NOT_NAMED 1956-10-26 03:00:00 TS 6.27500 91.0966 main 460 460 P________PO___ IO121956 6.26249 91.0950 -1 6.26249 91.0950 TC 25 6.30000 91.1000 1 6 309
1956300N06091 1956 103 NI BB NOT_NAMED 1956-10-26 06:00:00 TS 6.50179 90.8138 main 497 497 O________OP___ jtwc_io IO121956 6.50000 90.8000 -1 6.50000 90.8000 TC 25 6.50537 90.8412 1 8 310
1956300N06091 1956 103 NI BB NOT_NAMED 1956-10-26 09:00:00 TS 6.77918 90.4833 main 537 537 P________PP___ IO121956 6.78499 90.4725 -1 6.78499 90.4725 TC 25 6.76757 90.5049 1 9 310
1956300N06091 1956 103 NI BB NOT_NAMED 1956-10-26 12:00:00 TS 7.09032 90.1054 main 588 588 O________OP___ jtwc_io IO121956 7.10000 90.1000 -1 7.10000 90.1000 TC 25 7.07097 90.1161 1 10 309
1956300N06091 1956 103 NI BB NOT_NAMED 1956-10-26 15:00:00 TS 7.38996 89.7149 main 640 640 P________PO___ IO121956 7.38494 89.7224 -1 7.38494 89.7224 TC 25 7.40000 89.7000 1 10 308
1956300N06091 1956 103 NI BB NOT_NAMED 1956-10-26 18:00:00 TS 7.71630 89.2895 main 693 693 O________OP___ jtwc_io IO121956 7.70000 89.3000 -1 7.70000 89.3000 TC 25 7.74889 89.2684 1 12 308
1956300N06091 1956 103 NI BB NOT_NAMED 1956-10-26 21:00:00 TS 8.11015 88.7919 main 760 732 P________PP___ IO121956 8.10760 88.7777 -1 8.10760 88.7777 TC 25 8.11523 88.8204 1 12 309
1956300N06091 1956 103 NI BB NOT_NAMED 1956-10-27 00:00:00 TS 8.49131 88.3291 main 723 696 O________OP___ jtwc_io IO121956 8.50000 88.3000 -1 8.50000 88.3000 TC 25 8.47393 88.3872 1 10 311
1956300N06091 1956 103 NI BB NOT_NAMED 1956-10-27 03:00:00 TS 8.78159 88.0082 main 696 676 P________PO___ IO121956 8.77238 88.0123 -1 8.77238 88.0123 TC 25 8.80000 88.0000 1 8 313
1956300N06091 1956 103 NI BB NOT_NAMED 1956-10-27 06:00:00 TS 9.01751 87.7664 main 679 652 O________OP___ jtwc_io IO121956 9.00000 87.8000 -1 9.00000 87.8000 TC 25 9.05253 87.6993 1 7 314
1956300N06091 1956 103 NI BB NOT_NAMED 1956-10-27 09:00:00 TS 9.25737 87.5156 main 655 638 P________PP___ IO121956 9.24998 87.5500 -1 9.24998 87.5500 TC 25 9.27214 87.4470 1 7 314
1956300N06091 1956 103 NI BB NOT_NAMED 1956-10-27 12:00:00 TS 9.49357 87.2737 main 641 618 O________OP___ jtwc_io IO121956 9.50000 87.3000 -1 9.50000 87.3000 TC 25 9.48070 87.2212 1 7 315
1956300N06091 1956 103 NI BB NOT_NAMED 1956-10-27 15:00:00 TS 9.73332 87.0333 main 618 607 P________PO___ IO121956 9.74998 87.0500 -1 9.74998 87.0500 TC 30 9.70000 87.0000 1 7 315
1956300N06091 1956 103 NI BB NOT_NAMED 1956-10-27 18:00:00 TS 9.98278 86.7860 main 612 597 O________OP___ jtwc_io IO121956 10.0000 86.8000 -1 10.0000 86.8000 TC 35 9.94835 86.7579 1 7 316
1956300N06091 1956 103 NI BB NOT_NAMED 1956-10-27 21:00:00 TS 10.2324 86.5432 main 592 582 P________PP___ IO121956 10.2425 86.5574 -1 10.2425 86.5574 TC 35 10.2124 86.5147 1 7 316
1956300N06091 1956 103 NI BB NOT_NAMED 1956-10-28 00:00:00 TS 10.4984 86.2880 main 587 571 O________OP___ jtwc_io IO121956 10.5000 86.3000 -1 10.5000 86.3000 TC 35 10.4952 86.2641 1 8 316
1956300N06091 1956 103 NI BB NOT_NAMED 1956-10-28 03:00:00 TS 10.7850 86.0050 main 571 560 P________PO___ IO121956 10.7775 86.0074 -1 10.7775 86.0074 TC 35 10.8000 86.0000 3 8 317
1956300N06091 1956 103 NI BB NOT_NAMED 1956-10-28 06:00:00 TS 11.1122 85.7048 main 560 553 O________OP___ jtwc_io IO121956 11.1000 85.7000 -1 11.1000 85.7000 TC 35 11.1365 85.7144 3 9 320
1956300N06091 1956 103 NI BB NOT_NAMED 1956-10-28 09:00:00 TS 11.4975 85.4050 main 556 537 P________PP___ IO121956 11.5000 85.4000 -1 11.5000 85.4000 TC 50 11.4925 85.4150 3 10 323
1956300N06091 1956 103 NI BB NOT_NAMED 1956-10-28 12:00:00 TS 11.8841 85.1027 main 537 501 O________OP___ jtwc_io IO121956 11.9000 85.1000 -1 11.9000 85.1000 TC 65 11.8522 85.1081 3 9 320
1956300N06091 1956 103 NI BB NOT_NAMED 1956-10-28 15:00:00 TS 12.2100 84.7999 main 501 464 P________PO___ IO121956 12.2150 84.7999 -1 12.2150 84.7999 TC 65 12.2000 84.8000 4 8 317
1956300N06091 1956 103 NI BB NOT_NAMED 1956-10-28 18:00:00 TS 12.5006 84.5133 main 464 426 O________OP___ jtwc_io IO121956 12.5000 84.5000 -1 12.5000 84.5000 TC 65 12.5017 84.5398 4 8 316
1956300N06091 1956 103 NI BB NOT_NAMED 1956-10-28 21:00:00 TS 12.7922 84.2295 main 426 390 P________PP___ IO121956 12.7924 84.2074 -1 12.7924 84.2074 TC 65 12.7917 84.2737 4 8 316
1956300N06091 1956 103 NI BB NOT_NAMED 1956-10-29 00:00:00 TS 13.0953 83.9236 main 390 357 O________OP___ jtwc_io IO121956 13.1000 83.9000 -1 13.1000 83.9000 TC 65 13.0859 83.9708 4 9 316
1956300N06091 1956 103 NI BB NOT_NAMED 1956-10-29 03:00:00 TS 13.4282 83.6015 main 357 313 P________PO___ IO121956 13.4422 83.6022 -1 13.4422 83.6022 TC 50 13.4000 83.6000 4 10 314
1956300N06091 1956 103 NI BB NOT_NAMED 1956-10-29 06:00:00 TS 13.7982 83.1662 main 313 250 O________OP___ jtwc_io IO121956 13.8000 83.2000 -1 13.8000 83.2000 TC 35 13.7947 83.0986 4 13 306
1956300N06091 1956 103 NI BB NOT_NAMED 1956-10-29 09:00:00 TS 14.1680 82.5540 main 248 171 P________PP___ IO121956 14.1503 82.5651 -1 14.1503 82.5651 TC 35 14.2034 82.5316 4 14 301
1956300N06091 1956 103 NI BB NOT_NAMED 1956-10-29 12:00:00 TS 14.5284 81.9162 main 171 104 O________OP___ jtwc_io IO121956 14.5000 81.9000 -1 14.5000 81.9000 TC 35 14.5853 81.9486 4 13 303
1956300N06091 1956 103 NI BB NOT_NAMED 1956-10-29 15:00:00 TS 14.8915 81.4133 main 104 56 P________PO___ IO121956 14.8872 81.4200 -1 14.8872 81.4200 TC 30 14.9000 81.4000 2 11 305
1956300N06091 1956 103 NI BB NOT_NAMED 1956-10-29 18:00:00 TS 15.1674 80.9699 main 56 44 O________OP___ jtwc_io IO121956 15.2000 81.0000 -1 15.2000 81.0000 TC 25 15.1186 80.9248 2 9 296
1956300N06091 1956 103 NI BB NOT_NAMED 1956-10-29 21:00:00 TS 15.3103 80.5402 main 39 0 P________PP___ IO121956 15.3503 80.5599 -1 15.3503 80.5599 TC 25 15.2570 80.5139 2 8 284
1956300N06091 1956 103 NI BB NOT_NAMED 1956-10-30 00:00:00 TS 15.3710 80.1231 main 0 0 O________OP___ jtwc_io IO121956 15.4000 80.1000 -1 15.4000 80.1000 TC 25 15.3420 80.1462 2 7 277
1956300N06091 1956 103 NI BB NOT_NAMED 1956-10-30 03:00:00 NR 15.4000 79.8000 main 0 __________O___ IO121956 -1 TC 15.4000 79.8000 1 6 275

IBTrACS Databaseについて

本データベースは、米国NOAAが公開する1842年以降の世界の熱帯低気圧のベストトラックデータアーカイブInternational Best Track Archive for Climate Stewardship (IBTrACS)を、ウェブで閲覧しやすい形式に変換したものです。

最終更新日:2021-12-03